createdAt,value
2018-09-30T00:04:18.016Z,99.90
2018-09-30T00:08:58.386Z,99.90
2018-09-30T00:13:38.307Z,99.90
2018-09-30T00:18:19.017Z,99.90
2018-09-30T00:22:59.225Z,99.90
2018-09-30T00:27:39.669Z,99.90
2018-09-30T00:32:19.937Z,99.90
2018-09-30T00:37:00.634Z,99.90
2018-09-30T00:41:40.424Z,99.90
2018-09-30T00:46:20.396Z,99.90
2018-09-30T00:51:00.429Z,99.90
2018-09-30T00:55:40.730Z,99.90
2018-09-30T01:00:21.888Z,99.90
2018-09-30T01:05:02.236Z,99.90
2018-09-30T01:09:41.929Z,99.90
2018-09-30T01:14:22.692Z,99.90
2018-09-30T01:19:03.726Z,99.90
2018-09-30T01:23:43.748Z,99.90
2018-09-30T01:28:24.623Z,99.90
2018-09-30T01:33:04.622Z,99.90
2018-09-30T01:37:44.865Z,99.90
2018-09-30T01:42:24.946Z,99.90
2018-09-30T01:47:05.127Z,99.90
2018-09-30T01:51:45.000Z,99.90
2018-09-30T01:56:24.957Z,99.90
2018-09-30T02:01:04.929Z,99.90
2018-09-30T02:05:45.289Z,99.90
2018-09-30T02:10:25.332Z,99.90
2018-09-30T02:15:06.403Z,99.90
2018-09-30T02:19:47.120Z,99.90
2018-09-30T02:24:27.289Z,99.90
2018-09-30T02:29:07.852Z,99.90
2018-09-30T02:33:47.937Z,99.90
2018-09-30T02:38:28.484Z,99.90
2018-09-30T02:43:08.504Z,99.90
2018-09-30T02:47:49.930Z,99.90
2018-09-30T02:52:29.861Z,99.90
2018-09-30T02:57:09.920Z,99.90
2018-09-30T03:01:50.134Z,99.90
2018-09-30T03:06:35.368Z,99.90
2018-09-30T03:11:15.528Z,99.90
2018-09-30T03:16:02.246Z,99.90
2018-09-30T03:20:43.253Z,99.90
2018-09-30T03:25:23.283Z,99.90
2018-09-30T03:30:03.505Z,99.90
2018-09-30T03:34:43.577Z,99.90
2018-09-30T03:39:24.216Z,99.90
2018-09-30T03:44:04.396Z,99.90
2018-09-30T03:48:44.658Z,99.90
2018-09-30T03:53:24.861Z,99.90
2018-09-30T03:58:05.127Z,99.90
2018-09-30T04:02:45.280Z,99.90
2018-09-30T04:07:25.152Z,99.90
2018-09-30T04:12:06.339Z,99.90
2018-09-30T04:16:46.377Z,99.90
2018-09-30T04:21:27.142Z,99.90
2018-09-30T04:26:07.038Z,99.90
2018-09-30T04:30:47.091Z,99.90
2018-09-30T04:35:27.182Z,99.90
2018-09-30T04:40:07.572Z,99.90
2018-09-30T04:44:48.087Z,99.90
2018-09-30T04:49:28.090Z,99.90
2018-09-30T04:54:08.180Z,99.90
2018-09-30T04:58:48.250Z,99.90
2018-09-30T05:03:28.428Z,99.90
2018-09-30T05:08:08.355Z,99.90
2018-09-30T05:12:48.245Z,99.90
2018-09-30T05:17:28.216Z,99.90
2018-09-30T05:22:08.494Z,99.90
2018-09-30T05:26:48.599Z,99.90
2018-09-30T05:31:28.478Z,99.90
2018-09-30T05:36:08.990Z,99.90
2018-09-30T05:40:49.492Z,99.90
2018-09-30T05:45:29.476Z,99.90
2018-09-30T05:50:09.698Z,99.90
2018-09-30T05:54:49.769Z,99.90
2018-09-30T05:59:29.792Z,99.90
2018-09-30T06:04:10.694Z,99.90
2018-09-30T06:08:50.786Z,99.90
2018-09-30T06:13:30.855Z,99.90
2018-09-30T06:18:11.128Z,99.90
2018-09-30T06:22:51.221Z,99.90
2018-09-30T06:27:31.082Z,99.90
2018-09-30T06:32:11.380Z,99.90
2018-09-30T06:36:52.090Z,99.90
2018-09-30T06:41:32.322Z,99.90
2018-09-30T06:46:12.583Z,99.90
2018-09-30T06:50:52.789Z,99.90
2018-09-30T06:55:32.882Z,99.90
2018-09-30T07:00:13.890Z,99.90
2018-09-30T07:04:54.148Z,99.90
2018-09-30T07:09:34.021Z,99.90
2018-09-30T07:14:15.005Z,99.90
2018-09-30T07:18:55.121Z,96.40
2018-09-30T07:23:35.485Z,92.40
2018-09-30T07:28:17.653Z,90.00
2018-09-30T07:32:58.156Z,85.20
2018-09-30T07:37:38.193Z,81.00
2018-09-30T07:42:18.276Z,78.20
2018-09-30T07:46:58.641Z,72.70
2018-09-30T07:51:39.372Z,68.00
2018-09-30T07:56:19.536Z,67.40
2018-09-30T08:00:59.493Z,66.10
2018-09-30T08:05:40.677Z,64.00
2018-09-30T08:10:20.685Z,61.70
2018-09-30T08:15:00.659Z,58.40
2018-09-30T08:19:41.072Z,56.40
2018-09-30T08:24:21.323Z,55.00
2018-09-30T08:29:01.769Z,50.70
2018-09-30T08:33:42.295Z,50.00
2018-09-30T08:38:27.449Z,46.20
2018-09-30T08:43:08.205Z,46.70
2018-09-30T08:47:48.440Z,48.20
2018-09-30T08:52:28.705Z,47.70
2018-09-30T08:57:09.182Z,46.40
2018-09-30T09:01:50.197Z,45.40
2018-09-30T09:06:30.395Z,45.20
2018-09-30T09:11:10.774Z,44.00
2018-09-30T09:15:50.621Z,43.80
2018-09-30T09:20:30.946Z,42.50
2018-09-30T09:25:11.353Z,41.30
2018-09-30T09:29:51.066Z,41.60
2018-09-30T09:34:31.709Z,42.00
2018-09-30T09:39:12.453Z,42.00
2018-09-30T09:43:52.506Z,40.10
2018-09-30T09:48:32.593Z,40.80
2018-09-30T09:53:12.534Z,40.10
2018-09-30T09:57:52.409Z,40.40
2018-09-30T10:02:33.322Z,40.90
2018-09-30T10:07:14.021Z,39.10
2018-09-30T10:11:54.809Z,39.80
2018-09-30T10:16:35.229Z,38.80
2018-09-30T10:21:15.417Z,39.30
2018-09-30T10:25:55.403Z,39.80
2018-09-30T10:30:35.557Z,39.90
2018-09-30T10:35:15.461Z,40.70
2018-09-30T10:39:56.081Z,39.90
2018-09-30T10:44:36.390Z,39.90
2018-09-30T10:49:16.245Z,40.40
2018-09-30T10:53:56.765Z,39.60
2018-09-30T10:58:37.256Z,39.70
2018-09-30T11:03:17.339Z,39.40
2018-09-30T11:07:57.861Z,40.40
2018-09-30T11:12:38.914Z,40.50
2018-09-30T11:17:20.617Z,40.00
2018-09-30T11:22:01.652Z,38.90
2018-09-30T11:26:42.522Z,38.80
2018-09-30T11:31:25.449Z,39.70
2018-09-30T11:36:13.071Z,39.30
2018-09-30T11:40:53.736Z,39.80
2018-09-30T11:45:33.980Z,40.00
2018-09-30T11:50:14.061Z,40.40
2018-09-30T11:54:54.604Z,40.20
2018-09-30T11:59:34.985Z,39.80
2018-09-30T12:04:15.057Z,39.70
2018-09-30T12:08:57.276Z,37.80
2018-09-30T12:13:38.402Z,38.10
2018-09-30T12:18:22.110Z,37.90
2018-09-30T12:23:02.322Z,37.30
2018-09-30T12:27:49.077Z,36.90
2018-09-30T12:32:38.957Z,37.80
2018-09-30T12:37:19.498Z,37.70
2018-09-30T12:42:00.449Z,36.60
2018-09-30T12:46:40.838Z,36.20
2018-09-30T12:51:20.996Z,37.40
2018-09-30T12:56:04.932Z,38.40
2018-09-30T13:00:51.777Z,38.00
2018-09-30T13:05:32.821Z,39.70
2018-09-30T13:10:12.904Z,40.80
2018-09-30T13:14:52.842Z,39.80
2018-09-30T13:19:33.010Z,38.70
2018-09-30T13:24:13.083Z,40.00
2018-09-30T13:28:53.121Z,40.50
2018-09-30T13:33:33.524Z,39.90
2018-09-30T13:38:26.923Z,41.00
2018-09-30T13:43:07.929Z,40.50
2018-09-30T13:47:47.790Z,41.40
2018-09-30T13:52:27.835Z,41.50
2018-09-30T13:57:07.750Z,40.80
2018-09-30T14:01:48.073Z,41.30
2018-09-30T14:06:28.497Z,41.40
2018-09-30T14:11:08.389Z,42.80
2018-09-30T14:15:48.550Z,44.40
2018-09-30T14:20:29.013Z,45.10
2018-09-30T14:25:10.328Z,45.40
2018-09-30T14:29:50.241Z,46.90
2018-09-30T14:34:30.312Z,48.90
2018-09-30T14:39:12.828Z,50.00
2018-09-30T14:43:53.069Z,50.40
2018-09-30T14:48:33.527Z,51.30
2018-09-30T14:53:14.273Z,52.20
2018-09-30T14:57:54.232Z,52.70
2018-09-30T15:02:35.523Z,54.20
2018-09-30T15:07:16.011Z,56.00
2018-09-30T15:11:56.036Z,56.90
2018-09-30T15:16:36.065Z,57.60
2018-09-30T15:21:16.608Z,58.40
2018-09-30T15:25:56.636Z,59.00
2018-09-30T15:30:36.585Z,59.70
2018-09-30T15:35:16.880Z,60.00
2018-09-30T15:39:58.708Z,60.70
2018-09-30T15:44:39.030Z,61.80
2018-09-30T15:49:19.296Z,62.70
2018-09-30T15:53:59.358Z,63.60
2018-09-30T15:58:39.755Z,65.80
2018-09-30T16:03:19.905Z,66.50
2018-09-30T16:07:59.698Z,67.90
2018-09-30T16:12:39.688Z,69.20
2018-09-30T16:17:19.737Z,70.40
2018-09-30T16:21:59.813Z,72.10
2018-09-30T16:26:39.890Z,74.10
2018-09-30T16:31:19.956Z,75.10
2018-09-30T16:36:00.739Z,76.40
2018-09-30T16:40:40.605Z,78.20
2018-09-30T16:45:20.722Z,80.30
2018-09-30T16:50:00.682Z,83.20
2018-09-30T16:54:40.649Z,86.80
2018-09-30T16:59:20.992Z,91.30
2018-09-30T17:04:01.597Z,94.50
2018-09-30T17:08:41.690Z,97.20
2018-09-30T17:13:21.624Z,99.10
2018-09-30T17:18:01.838Z,99.90
2018-09-30T17:22:42.068Z,99.90
2018-09-30T17:27:22.425Z,99.90
2018-09-30T17:32:03.109Z,99.90
2018-09-30T17:36:43.178Z,99.90
2018-09-30T17:41:23.261Z,99.90
2018-09-30T17:46:03.309Z,99.90
2018-09-30T17:50:43.453Z,99.90
2018-09-30T17:55:23.403Z,99.90
2018-09-30T18:00:04.178Z,99.90
2018-09-30T18:04:44.850Z,99.90
2018-09-30T18:09:25.563Z,99.90
2018-09-30T18:14:06.260Z,99.90
2018-09-30T18:18:46.288Z,99.90
2018-09-30T18:23:26.432Z,99.90
2018-09-30T18:28:06.413Z,99.90
2018-09-30T18:32:46.316Z,99.90
2018-09-30T18:37:26.356Z,99.90
2018-09-30T18:42:06.452Z,99.90
2018-09-30T18:46:46.587Z,99.90
2018-09-30T18:51:26.705Z,99.90
2018-09-30T18:56:06.803Z,99.90
2018-09-30T19:00:46.772Z,99.90
2018-09-30T19:05:27.050Z,99.90
2018-09-30T19:10:07.043Z,99.90
2018-09-30T19:14:47.025Z,99.90
2018-09-30T19:19:27.129Z,99.90
2018-09-30T19:24:07.154Z,99.90
2018-09-30T19:28:46.984Z,99.90
2018-09-30T19:33:27.294Z,99.90
2018-09-30T19:38:08.038Z,99.90
2018-09-30T19:42:48.481Z,99.90
2018-09-30T19:47:29.193Z,99.90
2018-09-30T19:52:10.223Z,99.90
2018-09-30T19:56:49.989Z,99.90
2018-09-30T20:01:30.164Z,99.90
2018-09-30T20:06:12.182Z,99.90
2018-09-30T20:10:55.254Z,99.90
2018-09-30T20:15:35.696Z,99.90
2018-09-30T20:20:16.119Z,99.90
2018-09-30T20:24:56.555Z,99.90
2018-09-30T20:29:37.306Z,99.90
2018-09-30T20:34:18.209Z,99.90
2018-09-30T20:38:58.543Z,99.90
2018-09-30T20:43:39.272Z,99.90
2018-09-30T20:48:19.797Z,99.90
2018-09-30T20:53:10.440Z,99.90
2018-09-30T20:57:50.570Z,99.90
2018-09-30T21:02:30.435Z,99.90
2018-09-30T21:07:10.763Z,99.90
2018-09-30T21:11:51.785Z,99.90
2018-09-30T21:16:32.772Z,99.90
2018-09-30T21:21:13.755Z,99.90
2018-09-30T21:25:54.423Z,99.90
2018-09-30T21:30:35.461Z,99.90
2018-09-30T21:35:16.522Z,99.90
2018-09-30T21:39:56.668Z,99.90
2018-09-30T21:44:37.025Z,99.90
2018-09-30T21:49:17.304Z,99.90
2018-09-30T21:53:58.469Z,99.90
2018-09-30T21:58:38.687Z,99.90
2018-09-30T22:03:18.782Z,99.90
2018-09-30T22:07:58.735Z,99.90
2018-09-30T22:12:38.819Z,99.90
2018-09-30T22:17:20.121Z,99.90
2018-09-30T22:22:00.081Z,99.90
2018-09-30T22:26:40.693Z,99.90
2018-09-30T22:31:21.419Z,99.90
2018-09-30T22:36:01.685Z,99.90
2018-09-30T22:40:42.244Z,99.90
2018-09-30T22:45:22.481Z,99.90
2018-09-30T22:50:03.088Z,99.90
2018-09-30T22:54:43.280Z,99.90
2018-09-30T22:59:24.378Z,99.90
2018-09-30T23:04:04.425Z,99.90
2018-09-30T23:08:44.256Z,99.90
2018-09-30T23:13:25.181Z,99.90
2018-09-30T23:18:05.672Z,99.90
2018-09-30T23:22:45.962Z,99.90
2018-09-30T23:27:25.978Z,99.90
2018-09-30T23:32:05.896Z,99.90
2018-09-30T23:36:46.782Z,99.90
2018-09-30T23:41:27.717Z,99.90
2018-09-30T23:46:08.220Z,99.90
2018-09-30T23:50:48.422Z,99.90
2018-09-30T23:55:29.569Z,99.90
